Terminal Aerodrome Forecast
Issued by NWS

Home | Current Version | Previous Version | Text Only | Print | Product List | Glossary On
Versions: 1 2 3 4 5 6 7 8 9 10 11 12 13 14
000
FTUS41 KBTV 021727
TAFMSS
TAF
KMSS 021727Z 0218/0318 23010G16KT P6SM FEW045 SCT150
     FM030000 21008KT P6SM SCT120 BKN250
     FM030500 21012KT P6SM VCSH BKN060 BKN120 WS020/23040KT
     FM031200 22014G24KT P6SM VCSH BKN060 BKN100
     FM031400 23018G30KT P6SM -SHRA BKN040=

USA.gov is the U.S. government's official web portal to all federal, state and local government web resources and services.